Hlavní strana
METAR-TAF:

METAR-TAF

Letiště :

Richard B. Russell Airport

Rome, Georgie, Spojené státy americké

zeměpisná šířka: 34-20-52N, zeměpisná délka: 085-09-40W, výška: 194 m

Aktuální stav počasí

Zpráva byla vytvořena před 38 minutami, v 13:53 UTC
Severní vítr 9 kt
Teplota 23°C
Vlhkost vzduchu 69%
Tlak 1015 hPa
Viditelnost: 16.1 km
Jasno

METAR: KRMG 181353Z AUTO 01009KT 10SM CLR 23/17 A2996 RMK AO2 SLP136 T02330172

Čas: 10:31 (14:31 UTC)


TAF: chybějící

Stav a předpovědi počasí z více než 4 000 letišť (zprávy METAR a TAF).

Červené a žluté tečky na mapě představují dostupné meteorologické stanice.

Když kurzor umístíte na tečku, zobrazí se název stanice.

Pak kliknutím zobrazíte stav a předpověď počasí.

Chcete-li změnit mapu, kliknutím na zelené tlačítko se znaménkem +mapu přiblížíte, kliknutím na zelené tlačítko se znaménkem – mapu oddálíte a kliknutím na zelené šipky přejdete na sousední mapy.


METAR-TAF: